sensor_id;sensor_type;location;lat;lon;timestamp;pressure;altitude;pressure_sealevel;temperature;humidity
53506;BME280;39388;50.936;6.848;2023-02-10T00:02:19;102945.97;;;4.91;72.47
53506;BME280;39388;50.936;6.848;2023-02-10T00:04:50;102964.09;;;4.96;72.08
53506;BME280;39388;50.936;6.848;2023-02-10T00:07:23;102953.72;;;4.93;72.72
53506;BME280;39388;50.936;6.848;2023-02-10T00:09:53;102967.69;;;5.00;72.57
53506;BME280;39388;50.936;6.848;2023-02-10T00:12:23;102974.75;;;5.04;72.46
53506;BME280;39388;50.936;6.848;2023-02-10T00:14:54;102967.88;;;5.03;72.85
53506;BME280;39388;50.936;6.848;2023-02-10T00:17:24;102968.91;;;5.06;72.51
53506;BME280;39388;50.936;6.848;2023-02-10T00:19:54;102974.81;;;5.05;72.32
53506;BME280;39388;50.936;6.848;2023-02-10T00:22:25;102982.66;;;5.09;72.15
53506;BME280;39388;50.936;6.848;2023-02-10T00:24:55;102983.72;;;5.12;72.37
53506;BME280;39388;50.936;6.848;2023-02-10T00:27:25;102966.34;;;5.06;72.16
53506;BME280;39388;50.936;6.848;2023-02-10T00:29:56;102965.66;;;5.09;72.22
53506;BME280;39388;50.936;6.848;2023-02-10T00:32:26;102966.34;;;5.06;71.70
53506;BME280;39388;50.936;6.848;2023-02-10T00:34:56;102968.91;;;5.06;71.46
53506;BME280;39388;50.936;6.848;2023-02-10T00:37:27;102974.31;;;5.11;72.07
53506;BME280;39388;50.936;6.848;2023-02-10T00:39:57;102969.25;;;5.13;71.77
53506;BME280;39388;50.936;6.848;2023-02-10T00:42:27;102971.88;;;5.14;71.48
53506;BME280;39388;50.936;6.848;2023-02-10T00:44:58;102974.56;;;5.16;72.35
53506;BME280;39388;50.936;6.848;2023-02-10T00:47:28;102974.38;;;5.13;72.07
53506;BME280;39388;50.936;6.848;2023-02-10T00:49:59;102980.53;;;5.16;72.58
53506;BME280;39388;50.936;6.848;2023-02-10T00:52:29;102974.44;;;5.14;71.78
53506;BME280;39388;50.936;6.848;2023-02-10T00:54:59;102982.22;;;5.16;71.71
53506;BME280;39388;50.936;6.848;2023-02-10T00:57:30;102968.53;;;5.15;72.22
53506;BME280;39388;50.936;6.848;2023-02-10T01:00:00;102972.78;;;5.15;71.88
53506;BME280;39388;50.936;6.848;2023-02-10T01:02:31;102992.94;;;5.25;72.27
53506;BME280;39388;50.936;6.848;2023-02-10T01:05:01;102984.41;;;5.25;71.86
53506;BME280;39388;50.936;6.848;2023-02-10T01:07:33;102986.97;;;5.25;71.73
53506;BME280;39388;50.936;6.848;2023-02-10T01:10:04;102979.28;;;5.25;72.12
53506;BME280;39388;50.936;6.848;2023-02-10T01:12:34;102978.06;;;5.18;72.29
53506;BME280;39388;50.936;6.848;2023-02-10T01:15:05;102986.00;;;5.22;72.45
53506;BME280;39388;50.936;6.848;2023-02-10T01:17:35;102993.56;;;5.21;72.47
53506;BME280;39388;50.936;6.848;2023-02-10T01:20:07;102993.41;;;5.18;72.61
53506;BME280;39388;50.936;6.848;2023-02-10T01:22:37;102994.34;;;5.20;72.77
53506;BME280;39388;50.936;6.848;2023-02-10T01:25:07;102988.13;;;5.15;72.90
53506;BME280;39388;50.936;6.848;2023-02-10T01:27:38;102994.91;;;5.14;72.29
53506;BME280;39388;50.936;6.848;2023-02-10T01:30:08;103005.25;;;5.16;72.75
53506;BME280;39388;50.936;6.848;2023-02-10T01:32:39;102994.84;;;5.13;73.13
53506;BME280;39388;50.936;6.848;2023-02-10T01:35:09;102996.78;;;5.17;72.25
53506;BME280;39388;50.936;6.848;2023-02-10T01:37:40;103006.34;;;5.21;73.24
53506;BME280;39388;50.936;6.848;2023-02-10T01:40:11;103003.66;;;5.18;73.12
53506;BME280;39388;50.936;6.848;2023-02-10T01:42:41;103002.94;;;5.20;72.71
53506;BME280;39388;50.936;6.848;2023-02-10T01:48:03;103009.00;;;5.22;72.78
53506;BME280;39388;50.936;6.848;2023-02-10T01:50:38;103016.75;;;5.24;72.80
53506;BME280;39388;50.936;6.848;2023-02-10T01:53:11;103016.69;;;5.22;73.21
53506;BME280;39388;50.936;6.848;2023-02-10T01:55:44;103013.72;;;5.15;73.24
53506;BME280;39388;50.936;6.848;2023-02-10T01:58:19;103013.78;;;5.16;73.22
53506;BME280;39388;50.936;6.848;2023-02-10T02:00:50;103017.47;;;5.21;72.63
53506;BME280;39388;50.936;6.848;2023-02-10T02:03:20;103015.66;;;5.19;72.96
53506;BME280;39388;50.936;6.848;2023-02-10T02:05:51;103014.69;;;5.17;73.49
53506;BME280;39388;50.936;6.848;2023-02-10T02:08:27;103018.34;;;5.22;73.26
53506;BME280;39388;50.936;6.848;2023-02-10T02:14:06;103019.94;;;5.20;73.43
53506;BME280;39388;50.936;6.848;2023-02-10T02:31:48;103017.31;;;5.18;72.77
53506;BME280;39388;50.936;6.848;2023-02-10T02:34:45;103035.44;;;5.23;73.05
53506;BME280;39388;50.936;6.848;2023-02-10T02:37:22;103033.88;;;5.25;73.08
53506;BME280;39388;50.936;6.848;2023-02-10T02:39:54;103023.31;;;5.19;73.51
53506;BME280;39388;50.936;6.848;2023-02-10T02:42:27;103030.34;;;5.23;73.17
53506;BME280;39388;50.936;6.848;2023-02-10T02:45:08;103023.03;;;5.14;73.06
53506;BME280;39388;50.936;6.848;2023-02-10T02:47:58;103039.88;;;5.26;73.49
53506;BME280;39388;50.936;6.848;2023-02-10T02:59:23;103029.38;;;5.21;73.25
53506;BME280;39388;50.936;6.848;2023-02-10T03:01:59;103037.31;;;5.26;73.21
53506;BME280;39388;50.936;6.848;2023-02-10T03:04:32;103032.03;;;5.22;73.12
53506;BME280;39388;50.936;6.848;2023-02-10T03:07:04;103045.13;;;5.29;72.62
53506;BME280;39388;50.936;6.848;2023-02-10T03:09:35;103050.91;;;5.25;73.10
53506;BME280;39388;50.936;6.848;2023-02-10T03:12:06;103055.31;;;5.27;72.59
53506;BME280;39388;50.936;6.848;2023-02-10T03:14:36;103059.50;;;5.27;73.03
53506;BME280;39388;50.936;6.848;2023-02-10T03:17:06;103044.66;;;5.19;72.91
53506;BME280;39388;50.936;6.848;2023-02-10T03:19:37;103050.91;;;5.25;73.21
53506;BME280;39388;50.936;6.848;2023-02-10T03:22:07;103061.13;;;5.25;72.72
53506;BME280;39388;50.936;6.848;2023-02-10T03:24:37;103057.59;;;5.22;73.28
53506;BME280;39388;50.936;6.848;2023-02-10T03:27:08;103049.75;;;5.19;72.97
53506;BME280;39388;50.936;6.848;2023-02-10T03:29:38;103050.91;;;5.10;73.67
53506;BME280;39388;50.936;6.848;2023-02-10T03:32:08;103046.34;;;5.04;73.31
53506;BME280;39388;50.936;6.848;2023-02-10T03:34:39;103065.41;;;5.09;73.33
53506;BME280;39388;50.936;6.848;2023-02-10T03:37:10;103069.53;;;5.07;73.66
53506;BME280;39388;50.936;6.848;2023-02-10T03:39:40;103059.13;;;5.04;74.23
53506;BME280;39388;50.936;6.848;2023-02-10T03:42:11;103058.97;;;5.01;73.54
53506;BME280;39388;50.936;6.848;2023-02-10T03:44:41;103025.50;;;4.81;73.51
53506;BME280;39388;50.936;6.848;2023-02-10T03:47:11;103049.28;;;4.95;74.12
53506;BME280;39388;50.936;6.848;2023-02-10T03:49:42;103045.66;;;4.91;73.80
53506;BME280;39388;50.936;6.848;2023-02-10T03:52:12;103036.97;;;4.88;73.96
53506;BME280;39388;50.936;6.848;2023-02-10T03:54:43;103031.47;;;4.82;74.39
53506;BME280;39388;50.936;6.848;2023-02-10T03:57:13;103026.31;;;4.80;74.11
53506;BME280;39388;50.936;6.848;2023-02-10T03:59:43;103014.94;;;4.75;74.21
53506;BME280;39388;50.936;6.848;2023-02-10T04:02:14;103004.44;;;4.70;74.05
53506;BME280;39388;50.936;6.848;2023-02-10T04:04:44;102992.38;;;4.68;74.84
53506;BME280;39388;50.936;6.848;2023-02-10T04:07:15;102988.69;;;4.63;74.00
53506;BME280;39388;50.936;6.848;2023-02-10T04:09:45;102992.03;;;4.61;74.48
53506;BME280;39388;50.936;6.848;2023-02-10T04:12:15;102966.31;;;4.43;75.03
53506;BME280;39388;50.936;6.848;2023-02-10T04:14:46;103005.16;;;4.53;74.59
53506;BME280;39388;50.936;6.848;2023-02-10T04:17:16;103000.06;;;4.38;74.45
53506;BME280;39388;50.936;6.848;2023-02-10T04:19:46;103024.13;;;4.41;74.48
53506;BME280;39388;50.936;6.848;2023-02-10T04:22:17;103023.84;;;4.37;74.63
53506;BME280;39388;50.936;6.848;2023-02-10T04:24:47;103029.31;;;4.28;74.73
53506;BME280;39388;50.936;6.848;2023-02-10T04:27:18;103030.63;;;4.21;75.05
53506;BME280;39388;50.936;6.848;2023-02-10T04:29:48;103038.09;;;4.18;74.77
53506;BME280;39388;50.936;6.848;2023-02-10T04:32:19;103032.00;;;4.16;75.23
53506;BME280;39388;50.936;6.848;2023-02-10T04:34:49;103040.19;;;4.10;75.22
53506;BME280;39388;50.936;6.848;2023-02-10T04:37:19;103043.97;;;4.02;75.49
53506;BME280;39388;50.936;6.848;2023-02-10T04:39:50;103054.06;;;4.00;75.24
53506;BME280;39388;50.936;6.848;2023-02-10T04:42:20;103039.97;;;3.92;75.22
53506;BME280;39388;50.936;6.848;2023-02-10T04:44:59;103044.81;;;3.88;75.43
53506;BME280;39388;50.936;6.848;2023-02-10T04:47:30;103046.13;;;3.81;75.65
53506;BME280;39388;50.936;6.848;2023-02-10T04:50:00;103054.63;;;3.81;76.01
53506;BME280;39388;50.936;6.848;2023-02-10T04:52:30;103057.78;;;3.77;75.38
53506;BME280;39388;50.936;6.848;2023-02-10T04:55:01;103055.94;;;3.75;75.72
53506;BME280;39388;50.936;6.848;2023-02-10T04:57:31;103054.88;;;3.71;75.77
53506;BME280;39388;50.936;6.848;2023-02-10T05:00:03;103050.88;;;3.61;75.52
53506;BME280;39388;50.936;6.848;2023-02-10T05:02:34;103062.06;;;3.63;75.93
53506;BME280;39388;50.936;6.848;2023-02-10T05:05:04;103056.47;;;3.56;75.97
53506;BME280;39388;50.936;6.848;2023-02-10T05:07:35;103062.28;;;3.53;75.94
53506;BME280;39388;50.936;6.848;2023-02-10T05:10:05;103068.94;;;3.51;76.16
53506;BME280;39388;50.936;6.848;2023-02-10T05:12:36;103065.03;;;3.43;76.12
53506;BME280;39388;50.936;6.848;2023-02-10T05:15:07;103068.34;;;3.42;76.04
53506;BME280;39388;50.936;6.848;2023-02-10T05:17:38;103065.44;;;3.35;76.68
53506;BME280;39388;50.936;6.848;2023-02-10T05:20:09;103052.41;;;3.31;76.74
53506;BME280;39388;50.936;6.848;2023-02-10T05:22:40;103064.25;;;3.30;76.90
53506;BME280;39388;50.936;6.848;2023-02-10T05:25:10;103050.25;;;3.23;76.61
53506;BME280;39388;50.936;6.848;2023-02-10T05:27:41;103062.13;;;3.23;76.66
53506;BME280;39388;50.936;6.848;2023-02-10T05:30:11;103068.00;;;3.22;76.97
53506;BME280;39388;50.936;6.848;2023-02-10T05:32:43;103066.13;;;3.19;76.75
53506;BME280;39388;50.936;6.848;2023-02-10T05:35:13;103054.38;;;3.08;77.29
53506;BME280;39388;50.936;6.848;2023-02-10T05:37:43;103069.88;;;3.11;76.76
53506;BME280;39388;50.936;6.848;2023-02-10T05:40:14;103064.38;;;3.05;76.69
53506;BME280;39388;50.936;6.848;2023-02-10T05:42:44;103059.88;;;3.01;76.95
53506;BME280;39388;50.936;6.848;2023-02-10T05:45:15;103071.16;;;3.04;76.94
53506;BME280;39388;50.936;6.848;2023-02-10T05:47:46;103071.72;;;3.00;77.15
53506;BME280;39388;50.936;6.848;2023-02-10T05:50:17;103073.19;;;2.97;77.30
53506;BME280;39388;50.936;6.848;2023-02-10T05:52:47;103078.00;;;2.92;77.14
53506;BME280;39388;50.936;6.848;2023-02-10T05:55:18;103077.72;;;2.87;76.96
53506;BME280;39388;50.936;6.848;2023-02-10T05:57:48;103081.03;;;2.86;77.22
53506;BME280;39388;50.936;6.848;2023-02-10T06:00:20;103073.97;;;2.82;77.42
53506;BME280;39388;50.936;6.848;2023-02-10T06:02:51;103074.53;;;2.78;77.37
53506;BME280;39388;50.936;6.848;2023-02-10T06:05:21;103086.41;;;2.77;77.24
53506;BME280;39388;50.936;6.848;2023-02-10T06:07:52;103086.28;;;2.76;77.62
53506;BME280;39388;50.936;6.848;2023-02-10T06:10:24;103076.72;;;2.72;77.51
53506;BME280;39388;50.936;6.848;2023-02-10T06:12:55;103066.88;;;2.65;77.39
53506;BME280;39388;50.936;6.848;2023-02-10T06:15:25;103068.00;;;2.68;77.09
53506;BME280;39388;50.936;6.848;2023-02-10T06:17:56;103070.53;;;2.68;77.51
53506;BME280;39388;50.936;6.848;2023-02-10T06:20:26;103069.34;;;2.63;77.62
53506;BME280;39388;50.936;6.848;2023-02-10T06:22:56;103086.47;;;2.66;77.60
53506;BME280;39388;50.936;6.848;2023-02-10T06:25:27;103085.41;;;2.62;77.58
53506;BME280;39388;50.936;6.848;2023-02-10T06:27:57;103092.19;;;2.61;77.54
53506;BME280;39388;50.936;6.848;2023-02-10T06:30:28;103092.63;;;2.56;77.72
53506;BME280;39388;50.936;6.848;2023-02-10T06:32:58;103096.06;;;2.56;77.49
53506;BME280;39388;50.936;6.848;2023-02-10T06:35:28;103102.72;;;2.54;78.25
53506;BME280;39388;50.936;6.848;2023-02-10T06:37:59;103087.63;;;2.44;77.86
53506;BME280;39388;50.936;6.848;2023-02-10T06:40:29;103109.38;;;2.52;78.18
53506;BME280;39388;50.936;6.848;2023-02-10T06:43:00;103106.63;;;2.49;78.27
53506;BME280;39388;50.936;6.848;2023-02-10T06:45:31;103109.94;;;2.48;77.85
53506;BME280;39388;50.936;6.848;2023-02-10T06:48:03;103108.00;;;2.44;78.54
53506;BME280;39388;50.936;6.848;2023-02-10T06:50:33;103108.66;;;2.41;78.69
53506;BME280;39388;50.936;6.848;2023-02-10T06:53:03;103114.63;;;2.42;78.28
53506;BME280;39388;50.936;6.848;2023-02-10T06:55:34;103114.34;;;2.37;78.29
53506;BME280;39388;50.936;6.848;2023-02-10T06:58:05;103121.19;;;2.38;78.19
53506;BME280;39388;50.936;6.848;2023-02-10T07:00:35;103130.69;;;2.41;78.48
53506;BME280;39388;50.936;6.848;2023-02-10T07:03:06;103129.91;;;2.42;79.04
53506;BME280;39388;50.936;6.848;2023-02-10T07:05:36;103141.09;;;2.44;78.35
53506;BME280;39388;50.936;6.848;2023-02-10T07:08:07;103135.78;;;2.41;78.36
53506;BME280;39388;50.936;6.848;2023-02-10T07:10:38;103140.09;;;2.42;78.46
53506;BME280;39388;50.936;6.848;2023-02-10T07:13:09;103135.88;;;2.42;78.63
53506;BME280;39388;50.936;6.848;2023-02-10T07:15:39;103145.28;;;2.43;78.14
53506;BME280;39388;50.936;6.848;2023-02-10T07:18:10;103134.09;;;2.41;78.77
53506;BME280;39388;50.936;6.848;2023-02-10T07:20:40;103149.81;;;2.47;78.66
53506;BME280;39388;50.936;6.848;2023-02-10T07:23:10;103145.59;;;2.48;78.21
53506;BME280;39388;50.936;6.848;2023-02-10T07:25:41;103144.72;;;2.47;78.45
53506;BME280;39388;50.936;6.848;2023-02-10T07:28:11;103134.00;;;2.40;78.32
53506;BME280;39388;50.936;6.848;2023-02-10T07:30:41;103135.09;;;2.43;78.76
53506;BME280;39388;50.936;6.848;2023-02-10T07:33:12;103149.81;;;2.47;78.74
53506;BME280;39388;50.936;6.848;2023-02-10T07:35:42;103148.94;;;2.47;78.33
53506;BME280;39388;50.936;6.848;2023-02-10T07:38:12;103152.34;;;2.47;78.88
53506;BME280;39388;50.936;6.848;2023-02-10T07:40:43;103147.56;;;2.52;78.57
53506;BME280;39388;50.936;6.848;2023-02-10T07:43:13;103139.16;;;2.53;78.82
53506;BME280;39388;50.936;6.848;2023-02-10T07:45:43;103142.78;;;2.57;78.46
53506;BME280;39388;50.936;6.848;2023-02-10T07:48:14;103138.47;;;2.56;78.87
53506;BME280;39388;50.936;6.848;2023-02-10T07:50:46;103137.22;;;2.62;78.53
53506;BME280;39388;50.936;6.848;2023-02-10T07:53:18;103130.38;;;2.61;78.44
53506;BME280;39388;50.936;6.848;2023-02-10T07:55:48;103111.66;;;2.61;78.68
53506;BME280;39388;50.936;6.848;2023-02-10T07:58:19;103136.47;;;2.77;78.26
53506;BME280;39388;50.936;6.848;2023-02-10T08:00:49;103141.78;;;2.80;78.22
53506;BME280;39388;50.936;6.848;2023-02-10T08:03:20;103146.88;;;2.80;78.50
53506;BME280;39388;50.936;6.848;2023-02-10T08:05:50;103148.63;;;2.81;78.47
53506;BME280;39388;50.936;6.848;2023-02-10T08:08:20;103144.44;;;2.82;78.42
53506;BME280;39388;50.936;6.848;2023-02-10T08:10:51;103140.44;;;2.85;78.76
53506;BME280;39388;50.936;6.848;2023-02-10T08:13:22;103146.69;;;2.90;78.26
53506;BME280;39388;50.936;6.848;2023-02-10T08:15:52;103138.25;;;2.91;78.37
53506;BME280;39388;50.936;6.848;2023-02-10T08:18:23;103140.16;;;2.94;78.71
53506;BME280;39388;50.936;6.848;2023-02-10T08:20:53;103136.81;;;2.95;78.72
53506;BME280;39388;50.936;6.848;2023-02-10T08:23:24;103151.94;;;3.05;78.51
53506;BME280;39388;50.936;6.848;2023-02-10T08:25:54;103152.63;;;3.16;78.56
53506;BME280;39388;50.936;6.848;2023-02-10T08:28:24;103160.00;;;3.25;78.28
53506;BME280;39388;50.936;6.848;2023-02-10T08:30:59;103148.31;;;3.29;78.11
53506;BME280;39388;50.936;6.848;2023-02-10T08:33:30;103147.34;;;3.40;78.01
53506;BME280;39388;50.936;6.848;2023-02-10T08:36:08;103150.38;;;3.48;77.83
53506;BME280;39388;50.936;6.848;2023-02-10T08:38:39;103144.00;;;3.54;77.94
53506;BME280;39388;50.936;6.848;2023-02-10T08:41:09;103155.47;;;3.61;77.60
53506;BME280;39388;50.936;6.848;2023-02-10T08:43:40;103161.06;;;3.69;77.98
53506;BME280;39388;50.936;6.848;2023-02-10T08:46:10;103158.50;;;3.69;77.74
53506;BME280;39388;50.936;6.848;2023-02-10T08:48:41;103161.84;;;3.68;77.93
53506;BME280;39388;50.936;6.848;2023-02-10T08:51:12;103167.84;;;3.68;78.00
53506;BME280;39388;50.936;6.848;2023-02-10T08:53:44;103162.63;;;3.67;78.10
53506;BME280;39388;50.936;6.848;2023-02-10T08:56:16;103162.34;;;3.62;78.42
53506;BME280;39388;50.936;6.848;2023-02-10T08:58:47;103166.25;;;3.71;78.64
53506;BME280;39388;50.936;6.848;2023-02-10T09:01:22;103168.13;;;3.73;78.44
53506;BME280;39388;50.936;6.848;2023-02-10T09:03:53;103165.16;;;3.80;78.93
53506;BME280;39388;50.936;6.848;2023-02-10T09:06:29;103169.75;;;3.86;78.57
53506;BME280;39388;50.936;6.848;2023-02-10T09:09:00;103162.38;;;3.91;78.64
53506;BME280;39388;50.936;6.848;2023-02-10T09:11:30;103161.59;;;3.92;78.41
53506;BME280;39388;50.936;6.848;2023-02-10T09:14:01;103164.75;;;4.01;78.35
53506;BME280;39388;50.936;6.848;2023-02-10T09:16:31;103161.88;;;4.10;78.72
53506;BME280;39388;50.936;6.848;2023-02-10T09:19:02;103170.16;;;4.21;78.06
53506;BME280;39388;50.936;6.848;2023-02-10T09:21:32;103164.06;;;4.32;78.32
53506;BME280;39388;50.936;6.848;2023-02-10T09:24:03;103154.66;;;4.46;78.30
53506;BME280;39388;50.936;6.848;2023-02-10T09:26:33;103163.25;;;4.61;77.94
53506;BME280;39388;50.936;6.848;2023-02-10T09:29:04;103155.44;;;4.73;77.89
53506;BME280;39388;50.936;6.848;2023-02-10T09:31:35;103162.13;;;4.86;77.94
53506;BME280;39388;50.936;6.848;2023-02-10T09:34:05;103169.56;;;4.97;77.76
53506;BME280;39388;50.936;6.848;2023-02-10T09:36:35;103176.06;;;5.06;77.57
53506;BME280;39388;50.936;6.848;2023-02-10T09:39:06;103166.97;;;5.12;77.50
53506;BME280;39388;50.936;6.848;2023-02-10T09:41:44;103173.50;;;5.21;77.63
53506;BME280;39388;50.936;6.848;2023-02-10T09:44:22;103173.84;;;5.28;77.31
53506;BME280;39388;50.936;6.848;2023-02-10T09:47:23;103175.97;;;5.35;77.59
53506;BME280;39388;50.936;6.848;2023-02-10T09:50:09;103169.59;;;5.43;76.97
53506;BME280;39388;50.936;6.848;2023-02-10T09:53:13;103170.91;;;5.51;76.82
53506;BME280;39388;50.936;6.848;2023-02-10T09:58:44;103176.59;;;5.62;77.02
53506;BME280;39388;50.936;6.848;2023-02-10T10:01:39;103173.59;;;5.70;76.71
53506;BME280;39388;50.936;6.848;2023-02-10T10:04:17;103176.34;;;5.73;76.43
53506;BME280;39388;50.936;6.848;2023-02-10T10:06:50;103189.44;;;5.79;76.39
53506;BME280;39388;50.936;6.848;2023-02-10T10:09:43;103184.56;;;5.83;76.81
53506;BME280;39388;50.936;6.848;2023-02-10T10:12:17;103182.38;;;5.90;76.34
53506;BME280;39388;50.936;6.848;2023-02-10T10:14:48;103190.81;;;6.04;75.96
53506;BME280;39388;50.936;6.848;2023-02-10T10:23:15;103192.75;;;6.41;75.58
53506;BME280;39388;50.936;6.848;2023-02-10T10:31:15;103195.22;;;6.56;75.08
53506;BME280;39388;50.936;6.848;2023-02-10T10:33:53;103198.28;;;6.65;74.94
53506;BME280;39388;50.936;6.848;2023-02-10T10:36:39;103190.06;;;6.72;74.52
53506;BME280;39388;50.936;6.848;2023-02-10T10:39:32;103197.47;;;6.83;74.82
53506;BME280;39388;50.936;6.848;2023-02-10T10:42:23;103196.22;;;6.93;75.02
53506;BME280;39388;50.936;6.848;2023-02-10T10:45:02;103193.66;;;6.93;74.87
53506;BME280;39388;50.936;6.848;2023-02-10T10:47:50;103199.75;;;6.95;74.72
53506;BME280;39388;50.936;6.848;2023-02-10T10:50:23;103188.91;;;7.00;74.04
53506;BME280;39388;50.936;6.848;2023-02-10T10:52:55;103196.56;;;7.17;74.21
53506;BME280;39388;50.936;6.848;2023-02-10T10:55:41;103189.38;;;7.28;73.30
53506;BME280;39388;50.936;6.848;2023-02-10T10:58:27;103183.03;;;7.38;73.43
53506;BME280;39388;50.936;6.848;2023-02-10T11:01:00;103179.09;;;7.44;72.84
53506;BME280;39388;50.936;6.848;2023-02-10T11:03:32;103167.22;;;7.46;73.17
53506;BME280;39388;50.936;6.848;2023-02-10T11:08:55;103172.84;;;7.57;72.19
53506;BME280;39388;50.936;6.848;2023-02-10T11:11:37;103172.53;;;7.69;72.35
53506;BME280;39388;50.936;6.848;2023-02-10T11:14:16;103166.16;;;7.79;72.06
53506;BME280;39388;50.936;6.848;2023-02-10T11:16:52;103166.50;;;7.87;72.07
53506;BME280;39388;50.936;6.848;2023-02-10T11:19:25;103167.72;;;7.95;71.78
53506;BME280;39388;50.936;6.848;2023-02-10T11:21:57;103165.03;;;8.11;71.55
53506;BME280;39388;50.936;6.848;2023-02-10T11:24:31;103154.25;;;8.19;71.53
53506;BME280;39388;50.936;6.848;2023-02-10T11:27:12;103155.44;;;8.27;71.00
53506;BME280;39388;50.936;6.848;2023-02-10T11:29:48;103157.22;;;8.28;70.83
53506;BME280;39388;50.936;6.848;2023-02-10T11:34:57;103142.97;;;8.36;70.90
53506;BME280;39388;50.936;6.848;2023-02-10T11:37:35;103144.94;;;8.42;70.73
53506;BME280;39388;50.936;6.848;2023-02-10T11:40:21;103148.59;;;8.47;70.43
53506;BME280;39388;50.936;6.848;2023-02-10T11:42:58;103134.88;;;8.47;70.73
53506;BME280;39388;50.936;6.848;2023-02-10T11:45:31;103143.78;;;8.55;70.40
53506;BME280;39388;50.936;6.848;2023-02-10T11:48:13;103137.06;;;8.58;70.18
53506;BME280;39388;50.936;6.848;2023-02-10T11:50:46;103126.06;;;8.61;70.06
53506;BME280;39388;50.936;6.848;2023-02-10T11:53:25;103124.47;;;8.65;69.89
53506;BME280;39388;50.936;6.848;2023-02-10T11:59:14;103109.41;;;8.74;69.37
53506;BME280;39388;50.936;6.848;2023-02-10T12:02:03;103106.50;;;8.86;69.23
53506;BME280;39388;50.936;6.848;2023-02-10T12:10:17;103112.25;;;9.01;68.54
53506;BME280;39388;50.936;6.848;2023-02-10T12:26:55;103102.47;;;8.93;68.52
53506;BME280;39388;50.936;6.848;2023-02-10T12:40:49;103098.38;;;9.19;66.04
53506;BME280;39388;50.936;6.848;2023-02-10T12:54:03;103059.50;;;9.35;64.98
53506;BME280;39388;50.936;6.848;2023-02-10T12:59:24;103047.22;;;9.28;64.33
53506;BME280;39388;50.936;6.848;2023-02-10T13:02:01;103043.75;;;9.28;64.12
53506;BME280;39388;50.936;6.848;2023-02-10T13:04:44;103051.91;;;9.39;63.85
53506;BME280;39388;50.936;6.848;2023-02-10T13:12:41;103044.13;;;9.37;63.34
53506;BME280;39388;50.936;6.848;2023-02-10T13:15:29;103036.16;;;9.31;63.07
53506;BME280;39388;50.936;6.848;2023-02-10T13:18:02;103037.09;;;9.33;63.27
53506;BME280;39388;50.936;6.848;2023-02-10T13:20:42;103036.28;;;9.34;62.99
53506;BME280;39388;50.936;6.848;2023-02-10T13:34:24;103037.69;;;9.26;62.52
53506;BME280;39388;50.936;6.848;2023-02-10T13:37:05;103036.81;;;9.25;62.28
53506;BME280;39388;50.936;6.848;2023-02-10T13:39:37;103030.72;;;9.23;62.43
53506;BME280;39388;50.936;6.848;2023-02-10T13:42:17;103032.44;;;9.23;62.09
53506;BME280;39388;50.936;6.848;2023-02-10T13:45:01;103019.31;;;9.16;61.72
53506;BME280;39388;50.936;6.848;2023-02-10T13:47:48;103023.75;;;9.20;61.88
53506;BME280;39388;50.936;6.848;2023-02-10T13:50:29;103022.19;;;9.24;62.02
53506;BME280;39388;50.936;6.848;2023-02-10T13:53:23;103017.97;;;9.26;61.68
53506;BME280;39388;50.936;6.848;2023-02-10T14:04:43;103025.66;;;9.25;61.81
53506;BME280;39388;50.936;6.848;2023-02-10T14:13:04;103015.72;;;9.11;61.82
53506;BME280;39388;50.936;6.848;2023-02-10T14:15:38;103014.88;;;9.12;61.88
53506;BME280;39388;50.936;6.848;2023-02-10T14:18:30;103019.38;;;9.18;61.33
53506;BME280;39388;50.936;6.848;2023-02-10T14:21:08;103011.84;;;9.23;61.52
53506;BME280;39388;50.936;6.848;2023-02-10T14:23:42;102993.94;;;9.26;61.48
53506;BME280;39388;50.936;6.848;2023-02-10T14:26:34;103003.63;;;9.33;61.42
53506;BME280;39388;50.936;6.848;2023-02-10T14:29:11;103000.34;;;9.37;61.41
53506;BME280;39388;50.936;6.848;2023-02-10T14:31:45;103005.63;;;9.40;61.53
53506;BME280;39388;50.936;6.848;2023-02-10T14:37:00;102988.47;;;9.41;61.53
53506;BME280;39388;50.936;6.848;2023-02-10T14:39:31;103002.72;;;9.55;61.14
53506;BME280;39388;50.936;6.848;2023-02-10T14:42:04;103000.38;;;9.61;60.72
53506;BME280;39388;50.936;6.848;2023-02-10T14:44:40;102996.88;;;9.59;60.95
53506;BME280;39388;50.936;6.848;2023-02-10T14:47:17;103005.56;;;9.63;60.50
53506;BME280;39388;50.936;6.848;2023-02-10T14:49:51;102989.97;;;9.58;60.61
53506;BME280;39388;50.936;6.848;2023-02-10T14:52:29;102993.66;;;9.66;60.77
53506;BME280;39388;50.936;6.848;2023-02-10T14:55:00;102985.91;;;9.65;60.97
53506;BME280;39388;50.936;6.848;2023-02-10T14:57:30;102987.69;;;9.68;61.08
53506;BME280;39388;50.936;6.848;2023-02-10T15:00:01;102982.34;;;9.61;60.83
53506;BME280;39388;50.936;6.848;2023-02-10T15:02:31;102988.31;;;9.60;60.53
53506;BME280;39388;50.936;6.848;2023-02-10T15:05:07;102996.78;;;9.58;60.65
53506;BME280;39388;50.936;6.848;2023-02-10T15:07:45;102994.75;;;9.49;60.49
53506;BME280;39388;50.936;6.848;2023-02-10T15:10:29;103000.53;;;9.42;60.51
53506;BME280;39388;50.936;6.848;2023-02-10T15:13:03;102995.31;;;9.40;61.02
53506;BME280;39388;50.936;6.848;2023-02-10T15:15:35;102991.44;;;9.29;60.85
53506;BME280;39388;50.936;6.848;2023-02-10T15:18:12;102985.44;;;9.28;61.28
53506;BME280;39388;50.936;6.848;2023-02-10T15:20:57;102987.06;;;9.26;61.38
53506;BME280;39388;50.936;6.848;2023-02-10T15:23:29;102995.69;;;9.27;61.23
53506;BME280;39388;50.936;6.848;2023-02-10T15:26:04;102983.34;;;9.18;61.54
53506;BME280;39388;50.936;6.848;2023-02-10T15:28:35;102977.19;;;9.14;61.61
53506;BME280;39388;50.936;6.848;2023-02-10T15:31:26;102979.75;;;9.14;61.48
53506;BME280;39388;50.936;6.848;2023-02-10T15:34:00;102983.44;;;9.21;61.69
53506;BME280;39388;50.936;6.848;2023-02-10T15:36:43;102985.09;;;9.19;61.63
53506;BME280;39388;50.936;6.848;2023-02-10T15:39:26;102997.09;;;9.18;61.97
53506;BME280;39388;50.936;6.848;2023-02-10T15:44:41;102999.53;;;9.15;61.89
53506;BME280;39388;50.936;6.848;2023-02-10T15:49:56;102994.88;;;9.05;62.01